Terminal Aerodrome Forecast
Issued by NWS Wilmington, OH

Current Version | Previous Version | Graphics & Text | Print | Product List | Glossary On
Versions: 1 2 3 4 5 6 7 8 9 10 11 12 13 14 15 16 17 18 19 20 21 22 23 24 25 26 27
294
FTUS41 KILN 060534
TAFCVG
TAF
KCVG 060534Z 0606/0712 07008KT P6SM OVC120
     FM061000 08008KT P6SM -RA SCT006 OVC025
     FM061300 08006KT 5SM -RA BR OVC008
     FM061700 35004KT 3SM -RA BR OVC006
     FM062100 30012G20KT P6SM -DZ OVC010
     FM070200 29008KT P6SM OVC015=

USA.gov is the U.S. government's official web portal to all federal, state and local government web resources and services.